Map

Track Data

SID SEASON NUMBER BASIN SUBBASIN NAME ISO_TIME NATURE LAT LON WMO_WIND WMO_PRES WMO_AGENCY TRACK_TYPE DIST2LAND LANDFALL IFLAG USA_AGENCY USA_ATCF_ID USA_LAT USA_LON USA_RECORD USA_STATUS USA_WIND USA_PRES USA_SSHS USA_R34_NE USA_R34_SE USA_R34_SW USA_R34_NW USA_R50_NE USA_R50_SE USA_R50_SW USA_R50_NW USA_R64_NE USA_R64_SE USA_R64_SW USA_R64_NW USA_POCI USA_ROCI USA_RMW USA_EYE TOKYO_LAT TOKYO_LON TOKYO_GRADE TOKYO_WIND TOKYO_PRES TOKYO_R50_DIR TOKYO_R50_LONG TOKYO_R50_SHORT TOKYO_R30_DIR TOKYO_R30_LONG TOKYO_R30_SHORT TOKYO_LAND CMA_LAT CMA_LON CMA_CAT CMA_WIND CMA_PRES HKO_LAT HKO_LON HKO_CAT HKO_WIND HKO_PRES NEWDELHI_LAT NEWDELHI_LON NEWDELHI_GRADE NEWDELHI_WIND NEWDELHI_PRES NEWDELHI_CI NEWDELHI_DP NEWDELHI_POCI REUNION_LAT REUNION_LON REUNION_TYPE REUNION_WIND REUNION_PRES REUNION_TNUM REUNION_CI REUNION_RMW REUNION_R34_NE REUNION_R34_SE REUNION_R34_SW REUNION_R34_NW REUNION_R50_NE REUNION_R50_SE REUNION_R50_SW REUNION_R50_NW REUNION_R64_NE REUNION_R64_SE REUNION_R64_SW REUNION_R64_NW BOM_LAT BOM_LON BOM_TYPE BOM_WIND BOM_PRES BOM_TNUM BOM_CI BOM_RMW BOM_R34_NE BOM_R34_SE BOM_R34_SW BOM_R34_NW BOM_R50_NE BOM_R50_SE BOM_R50_SW BOM_R50_NW BOM_R64_NE BOM_R64_SE BOM_R64_SW BOM_R64_NW BOM_ROCI BOM_POCI BOM_EYE BOM_POS_METHOD BOM_PRES_METHOD NADI_LAT NADI_LON NADI_CAT NADI_WIND NADI_PRES WELLINGTON_LAT WELLINGTON_LON WELLINGTON_WIND WELLINGTON_PRES DS824_LAT DS824_LON DS824_STAGE DS824_WIND DS824_PRES TD9636_LAT TD9636_LON TD9636_STAGE TD9636_WIND TD9636_PRES TD9635_LAT TD9635_LON TD9635_WIND TD9635_PRES TD9635_ROCI NEUMANN_LAT NEUMANN_LON NEUMANN_CLASS NEUMANN_WIND NEUMANN_PRES MLC_LAT MLC_LON MLC_CLASS MLC_WIND MLC_PRES USA_GUST BOM_GUST BOM_GUST_PER REUNION_GUST REUNION_GUST_PER USA_SEAHGT USA_SEARAD_NE USA_SEARAD_SE USA_SEARAD_SW USA_SEARAD_NW STORM_SPEED STORM_DIR
1897026S18128 1897 5 SI WA NOT_NAMED 1897-01-25 12:00:00 NR -18.4000 127.700 main 0 0 __________O___ -1 -18.4000 127.700 7 1 93
1897026S18128 1897 5 SI WA NOT_NAMED 1897-01-25 15:00:00 NR -18.4030 127.753 main 0 0 __________P___ -1 -18.4030 127.753 7 0 0
1897026S18128 1897 5 SI WA NOT_NAMED 1897-01-25 18:00:00 NR -18.4450 127.705 main 0 0 __________P___ -1 -18.4450 127.705 7 3 240
1897026S18128 1897 5 SI WA NOT_NAMED 1897-01-25 21:00:00 NR -18.5648 127.455 main 0 0 __________P___ -1 -18.5648 127.455 7 8 245
1897026S18128 1897 5 SI WA NOT_NAMED 1897-01-26 00:00:00 NR -18.8000 126.900 main 0 0 __________O___ -1 -18.8000 126.900 7 15 246
1897026S18128 1897 5 SI WA NOT_NAMED 1897-01-26 03:00:00 NR -19.1770 125.978 main 0 0 __________P___ -1 -19.1770 125.978 7 22 246
1897026S18128 1897 5 SI WA NOT_NAMED 1897-01-26 06:00:00 NR -19.6826 124.791 main 0 0 __________P___ -1 -19.6826 124.791 7 26 245
1897026S18128 1897 5 SI WA NOT_NAMED 1897-01-26 09:00:00 NR -20.2959 123.483 main 0 0 __________P___ -1 -20.2959 123.483 7 28 242
1897026S18128 1897 5 SI WA NOT_NAMED 1897-01-26 12:00:00 NR -21.0000 122.200 main 0 0 __________O___ -1 -21.0000 122.200 7 28 239
1897026S18128 1897 5 SI WA NOT_NAMED 1897-01-26 15:00:00 NR -21.7497 120.897 main 0 0 __________P___ -1 -21.7497 120.897 7 28 236
1897026S18128 1897 5 SI WA NOT_NAMED 1897-01-26 18:00:00 NR -22.5830 119.679 main 0 0 __________P___ -1 -22.5830 119.679 7 27 229
1897026S18128 1897 5 SI WA NOT_NAMED 1897-01-26 21:00:00 NR -23.4740 118.719 main 0 0 __________P___ -1 -23.4740 118.719 7 23 217
1897026S18128 1897 5 SI WA NOT_NAMED 1897-01-27 00:00:00 NR -24.4000 118.200 main 0 0 __________O___ -1 -24.4000 118.200 7 20 193
1897026S18128 1897 5 SI WA NOT_NAMED 1897-01-27 03:00:00 NR -25.3911 118.225 main 0 0 __________P___ -1 -25.3911 118.225 7 21 167
1897026S18128 1897 5 SI WA NOT_NAMED 1897-01-27 06:00:00 NR -26.4031 118.724 main 0 0 __________P___ -1 -26.4031 118.724 7 23 148
1897026S18128 1897 5 SI WA NOT_NAMED 1897-01-27 09:00:00 NR -27.3638 119.587 main 0 0 __________P___ -1 -27.3638 119.587 7 25 136
1897026S18128 1897 5 SI WA NOT_NAMED 1897-01-27 12:00:00 NR -28.2000 120.700 main 0 0 __________O___ -1 -28.2000 120.700 7 26 126
1897026S18128 1897 5 SI WA NOT_NAMED 1897-01-27 15:00:00 NR -28.8778 121.944 main 0 0 __________P___ -1 -28.8778 121.944 7 26 117
1897026S18128 1897 5 SI WA NOT_NAMED 1897-01-27 18:00:00 NR -29.4114 123.384 main 0 0 __________P___ -1 -29.4114 123.384 7 27 110
1897026S18128 1897 5 SI WA NOT_NAMED 1897-01-27 21:00:00 NR -29.8125 124.858 main 0 0 __________P___ -1 -29.8125 124.858 7 25 106
1897026S18128 1897 5 SI WA NOT_NAMED 1897-01-28 00:00:00 NR -30.1000 126.200 main 0 0 __________O___ -1 -30.1000 126.200 7 21 104
1897026S18128 1897 5 SI WA NOT_NAMED 1897-01-28 03:00:00 NR -30.3184 127.214 main 0 0 __________P___ -1 -30.3184 127.214 7 16 102
1897026S18128 1897 5 SI WA NOT_NAMED 1897-01-28 06:00:00 NR -30.4464 128.068 main 0 0 __________P___ -1 -30.4464 128.068 7 14 99
1897026S18128 1897 5 SI WA NOT_NAMED 1897-01-28 09:00:00 NR -30.5266 128.812 main 0 0 __________P___ -1 -30.5266 128.812 7 12 97
1897026S18128 1897 5 SI WA NOT_NAMED 1897-01-28 12:00:00 NR -30.6000 129.500 main 0 0 __________O___ -1 -30.6000 129.500 7 11 92
1897026S18128 1897 5 SI WA NOT_NAMED 1897-01-28 15:00:00 NR -30.5686 130.135 main 0 0 __________P___ -1 -30.5686 130.135 7 11 88
1897026S18128 1897 5 SI WA NOT_NAMED 1897-01-28 18:00:00 NR -30.5632 130.738 main 0 0 __________P___ -1 -30.5632 130.738 7 11 97
1897026S18128 1897 5 SI WA NOT_NAMED 1897-01-28 21:00:00 NR -30.7017 131.397 main 0 0 __________P___ -1 -30.7017 131.397 7 14 113
1897026S18128 1897 5 SI WA NOT_NAMED 1897-01-29 00:00:00 NR -31.1000 132.200 main 0 0 __________O___ -1 -31.1000 132.200 7 20 125
1897026S18128 1897 5 SI WA NOT_NAMED 1897-01-29 03:00:00 NR -31.8736 133.316 main 0 0 __________P___ -1 -31.8736 133.316 7 27 131
1897026S18128 1897 5 SI WA NOT_NAMED 1897-01-29 06:00:00 NR -32.9012 134.601 main 0 0 __________P___ -1 -32.9012 134.601 7 31 135
1897026S18128 1897 5 SP EA NOT_NAMED 1897-01-29 09:00:00 NR -34.0770 135.963 main 0 0 __________P___ -1 -34.0770 135.963 7 33 137
1897026S18128 1897 5 SP EA NOT_NAMED 1897-01-29 12:00:00 NR -35.3000 137.300 main 14 0 __________O___ -1 -35.3000 137.300 7 32 139
1897026S18128 1897 5 SP EA NOT_NAMED 1897-01-29 15:00:00 NR -36.4925 138.527 main 80 28 __________P___ -1 -36.4925 138.527 7 30 141
1897026S18128 1897 5 SP EA NOT_NAMED 1897-01-29 18:00:00 NR -37.6499 139.658 main 28 28 __________P___ -1 -37.6499 139.658 7 29 143
1897026S18128 1897 5 SP EA NOT_NAMED 1897-01-29 21:00:00 NR -38.7831 140.735 main 75 68 __________P___ -1 -38.7831 140.735 7 28 143
1897026S18128 1897 5 SP EA NOT_NAMED 1897-01-30 00:00:00 NR -39.9000 141.800 main 168 __________O___ -1 -39.9000 141.800 7 28 144

About IBTrACS Database

This database is a web-friendly format of International Best Track Archive for Climate Stewardship (IBTrACS), a global best track data archive curated by NOAA dating back to 1842.

Updated: 2021-11-26